sensor_id;sensor_type;location;lat;lon;timestamp;temperature;humidity
7248;DHT22;3665;51.034;13.642;2024-02-23T00:05:26;11.10;1.00
7248;DHT22;3665;51.034;13.642;2024-02-23T00:11:16;11.30;1.00
7248;DHT22;3665;51.034;13.642;2024-02-23T00:22:23;11.40;1.00
7248;DHT22;3665;51.034;13.642;2024-02-23T00:28:08;11.40;1.00
7248;DHT22;3665;51.034;13.642;2024-02-23T00:33:27;11.50;1.00
7248;DHT22;3665;51.034;13.642;2024-02-23T00:45:53;11.30;1.00
7248;DHT22;3665;51.034;13.642;2024-02-23T00:51:50;11.10;1.00
7248;DHT22;3665;51.034;13.642;2024-02-23T00:57:25;11.10;1.00
7248;DHT22;3665;51.034;13.642;2024-02-23T01:02:46;11.10;1.00
7248;DHT22;3665;51.034;13.642;2024-02-23T01:08:20;11.20;1.00
7248;DHT22;3665;51.034;13.642;2024-02-23T01:13:52;11.10;1.00
7248;DHT22;3665;51.034;13.642;2024-02-23T01:18:59;10.90;1.00
7248;DHT22;3665;51.034;13.642;2024-02-23T01:24:40;10.90;1.00
7248;DHT22;3665;51.034;13.642;2024-02-23T01:30:15;10.90;1.00
7248;DHT22;3665;51.034;13.642;2024-02-23T02:16:41;10.70;1.00
7248;DHT22;3665;51.034;13.642;2024-02-23T02:21:53;10.60;1.00
7248;DHT22;3665;51.034;13.642;2024-02-23T02:26:56;10.50;1.00
7248;DHT22;3665;51.034;13.642;2024-02-23T02:32:19;10.40;1.00
7248;DHT22;3665;51.034;13.642;2024-02-23T02:37:19;10.40;1.00
7248;DHT22;3665;51.034;13.642;2024-02-23T02:43:10;10.30;1.00
7248;DHT22;3665;51.034;13.642;2024-02-23T02:48:04;10.20;1.00
7248;DHT22;3665;51.034;13.642;2024-02-23T02:53:35;10.10;1.00
7248;DHT22;3665;51.034;13.642;2024-02-23T02:59:03;10.20;1.00
7248;DHT22;3665;51.034;13.642;2024-02-23T03:04:51;10.10;1.00
7248;DHT22;3665;51.034;13.642;2024-02-23T03:10:04;10.00;1.00
7248;DHT22;3665;51.034;13.642;2024-02-23T03:15:29;9.90;1.00
7248;DHT22;3665;51.034;13.642;2024-02-23T03:20:17;9.80;1.00
7248;DHT22;3665;51.034;13.642;2024-02-23T03:25:12;9.70;1.00
7248;DHT22;3665;51.034;13.642;2024-02-23T03:30:22;9.60;1.00
7248;DHT22;3665;51.034;13.642;2024-02-23T03:35:31;9.40;1.00
7248;DHT22;3665;51.034;13.642;2024-02-23T03:40:41;9.40;1.00
7248;DHT22;3665;51.034;13.642;2024-02-23T03:45:57;9.30;1.00
7248;DHT22;3665;51.034;13.642;2024-02-23T03:51:13;9.10;1.00
7248;DHT22;3665;51.034;13.642;2024-02-23T03:56:15;9.10;1.00
7248;DHT22;3665;51.034;13.642;2024-02-23T04:01:04;8.90;1.00
7248;DHT22;3665;51.034;13.642;2024-02-23T04:05:51;8.80;1.00
7248;DHT22;3665;51.034;13.642;2024-02-23T04:10:43;8.60;1.00
7248;DHT22;3665;51.034;13.642;2024-02-23T04:15:27;8.60;1.00
7248;DHT22;3665;51.034;13.642;2024-02-23T04:20:13;8.60;1.00
7248;DHT22;3665;51.034;13.642;2024-02-23T04:25:02;8.40;1.00
7248;DHT22;3665;51.034;13.642;2024-02-23T04:29:56;8.20;1.00
7248;DHT22;3665;51.034;13.642;2024-02-23T04:34:39;8.10;1.00
7248;DHT22;3665;51.034;13.642;2024-02-23T04:39:29;8.00;1.00
7248;DHT22;3665;51.034;13.642;2024-02-23T04:44:15;8.00;1.00
7248;DHT22;3665;51.034;13.642;2024-02-23T04:49:04;7.90;1.00
7248;DHT22;3665;51.034;13.642;2024-02-23T04:53:53;7.70;1.00
7248;DHT22;3665;51.034;13.642;2024-02-23T04:58:39;7.50;1.00
7248;DHT22;3665;51.034;13.642;2024-02-23T05:03:29;7.40;1.00
7248;DHT22;3665;51.034;13.642;2024-02-23T05:08:16;7.40;1.00
7248;DHT22;3665;51.034;13.642;2024-02-23T05:13:03;7.50;1.00
7248;DHT22;3665;51.034;13.642;2024-02-23T05:17:53;7.60;1.00
7248;DHT22;3665;51.034;13.642;2024-02-23T05:22:39;7.50;1.00
7248;DHT22;3665;51.034;13.642;2024-02-23T05:27:24;7.40;1.00
7248;DHT22;3665;51.034;13.642;2024-02-23T05:32:09;7.30;1.00
7248;DHT22;3665;51.034;13.642;2024-02-23T05:36:57;7.40;1.00
7248;DHT22;3665;51.034;13.642;2024-02-23T05:41:47;7.30;1.00
7248;DHT22;3665;51.034;13.642;2024-02-23T05:46:34;7.30;1.00
7248;DHT22;3665;51.034;13.642;2024-02-23T05:51:20;7.20;1.00
7248;DHT22;3665;51.034;13.642;2024-02-23T05:56:14;7.20;1.00
7248;DHT22;3665;51.034;13.642;2024-02-23T06:01:04;7.30;1.00
7248;DHT22;3665;51.034;13.642;2024-02-23T06:06:07;7.10;1.00
7248;DHT22;3665;51.034;13.642;2024-02-23T06:10:57;7.00;1.00
7248;DHT22;3665;51.034;13.642;2024-02-23T06:15:44;6.90;1.00
7248;DHT22;3665;51.034;13.642;2024-02-23T06:20:33;6.80;1.00
7248;DHT22;3665;51.034;13.642;2024-02-23T06:25:21;6.90;1.00
7248;DHT22;3665;51.034;13.642;2024-02-23T06:30:10;6.90;1.00
7248;DHT22;3665;51.034;13.642;2024-02-23T06:34:56;6.80;1.00
7248;DHT22;3665;51.034;13.642;2024-02-23T06:39:44;6.60;1.00
7248;DHT22;3665;51.034;13.642;2024-02-23T06:44:36;6.60;1.00
7248;DHT22;3665;51.034;13.642;2024-02-23T06:49:20;6.70;1.00
7248;DHT22;3665;51.034;13.642;2024-02-23T06:54:04;6.80;1.00
7248;DHT22;3665;51.034;13.642;2024-02-23T06:58:58;7.00;1.00
7248;DHT22;3665;51.034;13.642;2024-02-23T07:04:01;7.00;1.00
7248;DHT22;3665;51.034;13.642;2024-02-23T07:08:49;7.00;1.00
7248;DHT22;3665;51.034;13.642;2024-02-23T07:13:35;7.30;1.00
7248;DHT22;3665;51.034;13.642;2024-02-23T07:18:20;7.30;1.00
7248;DHT22;3665;51.034;13.642;2024-02-23T07:23:15;7.30;1.00
7248;DHT22;3665;51.034;13.642;2024-02-23T07:27:59;7.40;1.00
7248;DHT22;3665;51.034;13.642;2024-02-23T07:32:48;7.30;1.00
7248;DHT22;3665;51.034;13.642;2024-02-23T07:37:36;7.30;1.00
7248;DHT22;3665;51.034;13.642;2024-02-23T07:42:24;7.30;1.00
7248;DHT22;3665;51.034;13.642;2024-02-23T07:47:12;7.40;1.00
7248;DHT22;3665;51.034;13.642;2024-02-23T07:52:00;7.50;1.00
7248;DHT22;3665;51.034;13.642;2024-02-23T07:56:46;7.60;1.00
7248;DHT22;3665;51.034;13.642;2024-02-23T08:01:38;7.60;1.00
7248;DHT22;3665;51.034;13.642;2024-02-23T08:06:24;7.50;1.00
7248;DHT22;3665;51.034;13.642;2024-02-23T08:11:08;7.50;1.00
7248;DHT22;3665;51.034;13.642;2024-02-23T08:16:02;7.60;1.00
7248;DHT22;3665;51.034;13.642;2024-02-23T08:20:47;7.70;1.00
7248;DHT22;3665;51.034;13.642;2024-02-23T08:25:31;7.60;1.00
7248;DHT22;3665;51.034;13.642;2024-02-23T08:30:16;7.60;1.00
7248;DHT22;3665;51.034;13.642;2024-02-23T08:35:13;7.40;1.00
7248;DHT22;3665;51.034;13.642;2024-02-23T08:39:59;7.40;1.00
7248;DHT22;3665;51.034;13.642;2024-02-23T08:44:50;7.30;1.00
7248;DHT22;3665;51.034;13.642;2024-02-23T08:49:37;7.40;1.00
7248;DHT22;3665;51.034;13.642;2024-02-23T08:54:26;7.50;1.00
7248;DHT22;3665;51.034;13.642;2024-02-23T08:59:16;7.60;1.00
7248;DHT22;3665;51.034;13.642;2024-02-23T09:04:00;7.90;1.00
7248;DHT22;3665;51.034;13.642;2024-02-23T09:08:48;8.10;1.00
7248;DHT22;3665;51.034;13.642;2024-02-23T09:13:36;8.40;1.00
7248;DHT22;3665;51.034;13.642;2024-02-23T09:18:23;8.80;1.00
7248;DHT22;3665;51.034;13.642;2024-02-23T09:23:09;9.20;1.00
7248;DHT22;3665;51.034;13.642;2024-02-23T09:27:59;9.20;1.00
7248;DHT22;3665;51.034;13.642;2024-02-23T09:32:48;9.50;1.00
7248;DHT22;3665;51.034;13.642;2024-02-23T09:37:36;9.40;1.00
7248;DHT22;3665;51.034;13.642;2024-02-23T09:42:24;9.40;1.00
7248;DHT22;3665;51.034;13.642;2024-02-23T09:47:12;9.80;1.00
7248;DHT22;3665;51.034;13.642;2024-02-23T09:51:57;9.70;1.00
7248;DHT22;3665;51.034;13.642;2024-02-23T09:56:47;9.50;1.00
7248;DHT22;3665;51.034;13.642;2024-02-23T10:01:38;9.60;1.00
7248;DHT22;3665;51.034;13.642;2024-02-23T10:06:25;9.90;1.00
7248;DHT22;3665;51.034;13.642;2024-02-23T10:11:11;9.80;1.00
7248;DHT22;3665;51.034;13.642;2024-02-23T10:15:59;10.00;1.00
7248;DHT22;3665;51.034;13.642;2024-02-23T10:21:06;9.70;1.00
7248;DHT22;3665;51.034;13.642;2024-02-23T10:32:57;9.60;1.00
7248;DHT22;3665;51.034;13.642;2024-02-23T10:38:27;9.70;1.00
7248;DHT22;3665;51.034;13.642;2024-02-23T10:44:00;9.90;1.00
7248;DHT22;3665;51.034;13.642;2024-02-23T10:49:07;9.90;1.00
7248;DHT22;3665;51.034;13.642;2024-02-23T11:00:27;9.90;1.00
7248;DHT22;3665;51.034;13.642;2024-02-23T11:06:00;10.20;1.00
7248;DHT22;3665;51.034;13.642;2024-02-23T11:11:12;10.00;1.00
7248;DHT22;3665;51.034;13.642;2024-02-23T11:16:23;10.00;1.00
7248;DHT22;3665;51.034;13.642;2024-02-23T11:21:38;10.30;1.00
7248;DHT22;3665;51.034;13.642;2024-02-23T11:26:42;10.50;1.00
7248;DHT22;3665;51.034;13.642;2024-02-23T11:31:30;10.10;1.00
7248;DHT22;3665;51.034;13.642;2024-02-23T11:37:21;9.90;1.00
7248;DHT22;3665;51.034;13.642;2024-02-23T11:42:31;10.20;1.00
7248;DHT22;3665;51.034;13.642;2024-02-23T11:48:07;10.10;1.00
7248;DHT22;3665;51.034;13.642;2024-02-23T11:53:41;10.00;1.00
7248;DHT22;3665;51.034;13.642;2024-02-23T11:59:01;10.50;1.00
7248;DHT22;3665;51.034;13.642;2024-02-23T12:04:04;10.30;1.00
7248;DHT22;3665;51.034;13.642;2024-02-23T12:15:04;10.10;1.00
7248;DHT22;3665;51.034;13.642;2024-02-23T12:20:35;10.10;1.00
7248;DHT22;3665;51.034;13.642;2024-02-23T12:38:44;10.60;1.00
7248;DHT22;3665;51.034;13.642;2024-02-23T12:43:30;10.60;1.00
7248;DHT22;3665;51.034;13.642;2024-02-23T12:48:48;10.50;1.00
7248;DHT22;3665;51.034;13.642;2024-02-23T12:54:10;10.50;1.00
7248;DHT22;3665;51.034;13.642;2024-02-23T12:59:30;10.40;1.00
7248;DHT22;3665;51.034;13.642;2024-02-23T13:05:09;10.20;1.00
7248;DHT22;3665;51.034;13.642;2024-02-23T13:10:11;10.60;1.00
7248;DHT22;3665;51.034;13.642;2024-02-23T13:15:17;10.10;1.00
7248;DHT22;3665;51.034;13.642;2024-02-23T13:20:37;10.30;1.00
7248;DHT22;3665;51.034;13.642;2024-02-23T13:26:31;10.20;1.00
7248;DHT22;3665;51.034;13.642;2024-02-23T13:37:04;10.50;1.00
7248;DHT22;3665;51.034;13.642;2024-02-23T13:42:49;10.70;1.00
7248;DHT22;3665;51.034;13.642;2024-02-23T13:48:08;10.60;1.00
7248;DHT22;3665;51.034;13.642;2024-02-23T13:53:27;10.50;1.00
7248;DHT22;3665;51.034;13.642;2024-02-23T13:58:46;10.40;1.00
7248;DHT22;3665;51.034;13.642;2024-02-23T14:04:25;10.20;1.00
7248;DHT22;3665;51.034;13.642;2024-02-23T14:10:08;10.10;1.00
7248;DHT22;3665;51.034;13.642;2024-02-23T14:15:13;9.80;1.00
7248;DHT22;3665;51.034;13.642;2024-02-23T14:20:18;9.40;1.00
7248;DHT22;3665;51.034;13.642;2024-02-23T14:25:06;9.10;1.00
7248;DHT22;3665;51.034;13.642;2024-02-23T14:30:17;9.10;1.00
7248;DHT22;3665;51.034;13.642;2024-02-23T14:35:34;9.00;1.00
7248;DHT22;3665;51.034;13.642;2024-02-23T14:41:07;9.10;1.00
7248;DHT22;3665;51.034;13.642;2024-02-23T14:46:27;9.10;1.00
7248;DHT22;3665;51.034;13.642;2024-02-23T14:51:43;9.30;1.00
7248;DHT22;3665;51.034;13.642;2024-02-23T14:56:51;9.20;1.00
7248;DHT22;3665;51.034;13.642;2024-02-23T15:01:54;9.20;1.00
7248;DHT22;3665;51.034;13.642;2024-02-23T15:07:00;9.00;1.00
7248;DHT22;3665;51.034;13.642;2024-02-23T15:12:03;9.00;1.00
7248;DHT22;3665;51.034;13.642;2024-02-23T15:17:28;8.80;1.00
7248;DHT22;3665;51.034;13.642;2024-02-23T15:22:45;8.80;1.00
7248;DHT22;3665;51.034;13.642;2024-02-23T15:28:04;8.60;1.00
7248;DHT22;3665;51.034;13.642;2024-02-23T15:33:42;8.50;1.00
7248;DHT22;3665;51.034;13.642;2024-02-23T15:38:57;8.40;1.00
7248;DHT22;3665;51.034;13.642;2024-02-23T15:44:01;8.20;1.00
7248;DHT22;3665;51.034;13.642;2024-02-23T15:49:38;8.00;1.00
7248;DHT22;3665;51.034;13.642;2024-02-23T15:54:59;7.80;1.00
7248;DHT22;3665;51.034;13.642;2024-02-23T16:00:30;7.50;1.00
7248;DHT22;3665;51.034;13.642;2024-02-23T16:05:43;7.40;1.00
7248;DHT22;3665;51.034;13.642;2024-02-23T16:10:43;7.30;1.00
7248;DHT22;3665;51.034;13.642;2024-02-23T16:16:01;7.20;1.00
7248;DHT22;3665;51.034;13.642;2024-02-23T16:21:40;7.20;1.00
7248;DHT22;3665;51.034;13.642;2024-02-23T16:26:41;7.00;1.00
7248;DHT22;3665;51.034;13.642;2024-02-23T16:31:24;6.80;1.00
7248;DHT22;3665;51.034;13.642;2024-02-23T16:36:16;6.60;1.00
7248;DHT22;3665;51.034;13.642;2024-02-23T16:41:02;6.60;1.00
7248;DHT22;3665;51.034;13.642;2024-02-23T16:45:48;6.50;1.00
7248;DHT22;3665;51.034;13.642;2024-02-23T16:50:32;6.40;1.00
7248;DHT22;3665;51.034;13.642;2024-02-23T16:55:19;6.30;1.00
7248;DHT22;3665;51.034;13.642;2024-02-23T17:00:18;6.30;1.00
7248;DHT22;3665;51.034;13.642;2024-02-23T17:05:04;6.20;1.00
7248;DHT22;3665;51.034;13.642;2024-02-23T17:09:49;6.10;1.00
7248;DHT22;3665;51.034;13.642;2024-02-23T17:14:33;6.00;1.00
7248;DHT22;3665;51.034;13.642;2024-02-23T17:19:27;5.90;1.00
7248;DHT22;3665;51.034;13.642;2024-02-23T17:24:17;6.00;1.00
7248;DHT22;3665;51.034;13.642;2024-02-23T17:29:02;5.80;1.00
7248;DHT22;3665;51.034;13.642;2024-02-23T17:33:46;5.80;1.00
7248;DHT22;3665;51.034;13.642;2024-02-23T17:38:42;5.60;1.00
7248;DHT22;3665;51.034;13.642;2024-02-23T17:43:27;5.40;1.00
7248;DHT22;3665;51.034;13.642;2024-02-23T17:48:12;5.30;1.00
7248;DHT22;3665;51.034;13.642;2024-02-23T17:53:04;5.20;1.00
7248;DHT22;3665;51.034;13.642;2024-02-23T17:57:51;5.20;1.00
7248;DHT22;3665;51.034;13.642;2024-02-23T18:02:38;5.10;1.00
7248;DHT22;3665;51.034;13.642;2024-02-23T18:07:27;5.00;1.00
7248;DHT22;3665;51.034;13.642;2024-02-23T18:12:13;5.10;1.00
7248;DHT22;3665;51.034;13.642;2024-02-23T18:17:06;5.10;1.00
7248;DHT22;3665;51.034;13.642;2024-02-23T18:21:52;5.00;1.00
7248;DHT22;3665;51.034;13.642;2024-02-23T18:26:37;4.90;1.00
7248;DHT22;3665;51.034;13.642;2024-02-23T18:31:26;4.80;1.00
7248;DHT22;3665;51.034;13.642;2024-02-23T18:36:22;4.70;1.00
7248;DHT22;3665;51.034;13.642;2024-02-23T18:41:06;4.60;1.00
7248;DHT22;3665;51.034;13.642;2024-02-23T18:45:51;4.60;1.00
7248;DHT22;3665;51.034;13.642;2024-02-23T18:50:41;4.50;1.00
7248;DHT22;3665;51.034;13.642;2024-02-23T18:55:28;4.50;1.00
7248;DHT22;3665;51.034;13.642;2024-02-23T19:00:16;4.50;1.00
7248;DHT22;3665;51.034;13.642;2024-02-23T19:05:05;4.40;1.00
7248;DHT22;3665;51.034;13.642;2024-02-23T19:09:49;4.40;1.00
7248;DHT22;3665;51.034;13.642;2024-02-23T19:14:40;4.40;1.00
7248;DHT22;3665;51.034;13.642;2024-02-23T19:19:29;4.40;1.00
7248;DHT22;3665;51.034;13.642;2024-02-23T19:24:19;4.50;1.00
7248;DHT22;3665;51.034;13.642;2024-02-23T19:29:03;4.50;1.00
7248;DHT22;3665;51.034;13.642;2024-02-23T19:33:56;4.60;1.00
7248;DHT22;3665;51.034;13.642;2024-02-23T19:38:41;4.60;1.00
7248;DHT22;3665;51.034;13.642;2024-02-23T19:43:27;4.70;1.00
7248;DHT22;3665;51.034;13.642;2024-02-23T19:48:16;4.70;1.00
7248;DHT22;3665;51.034;13.642;2024-02-23T19:53:03;4.70;1.00
7248;DHT22;3665;51.034;13.642;2024-02-23T19:57:53;4.80;1.00
7248;DHT22;3665;51.034;13.642;2024-02-23T20:02:45;4.90;1.00
7248;DHT22;3665;51.034;13.642;2024-02-23T20:07:29;4.80;1.00
7248;DHT22;3665;51.034;13.642;2024-02-23T20:12:15;4.80;1.00
7248;DHT22;3665;51.034;13.642;2024-02-23T20:17:03;4.80;1.00
7248;DHT22;3665;51.034;13.642;2024-02-23T20:21:57;4.80;1.00
7248;DHT22;3665;51.034;13.642;2024-02-23T20:26:41;4.80;1.00
7248;DHT22;3665;51.034;13.642;2024-02-23T20:31:29;4.80;1.00
7248;DHT22;3665;51.034;13.642;2024-02-23T20:36:15;4.70;1.00
7248;DHT22;3665;51.034;13.642;2024-02-23T20:41:05;4.70;1.00
7248;DHT22;3665;51.034;13.642;2024-02-23T20:45:51;4.60;1.00
7248;DHT22;3665;51.034;13.642;2024-02-23T20:50:39;4.50;1.00
7248;DHT22;3665;51.034;13.642;2024-02-23T20:55:32;4.50;1.00
7248;DHT22;3665;51.034;13.642;2024-02-23T21:00:16;4.60;1.00
7248;DHT22;3665;51.034;13.642;2024-02-23T21:05:06;4.50;1.00
7248;DHT22;3665;51.034;13.642;2024-02-23T21:09:52;4.40;1.00
7248;DHT22;3665;51.034;13.642;2024-02-23T21:14:41;4.40;1.00
7248;DHT22;3665;51.034;13.642;2024-02-23T21:19:28;4.50;1.00
7248;DHT22;3665;51.034;13.642;2024-02-23T21:24:17;4.50;1.00
7248;DHT22;3665;51.034;13.642;2024-02-23T21:29:03;4.50;1.00
7248;DHT22;3665;51.034;13.642;2024-02-23T21:33:53;4.40;1.00
7248;DHT22;3665;51.034;13.642;2024-02-23T21:38:39;4.40;1.00
7248;DHT22;3665;51.034;13.642;2024-02-23T21:43:27;4.50;1.00
7248;DHT22;3665;51.034;13.642;2024-02-23T21:48:20;4.40;1.00
7248;DHT22;3665;51.034;13.642;2024-02-23T21:53:04;4.30;1.00
7248;DHT22;3665;51.034;13.642;2024-02-23T21:57:53;4.30;1.00
7248;DHT22;3665;51.034;13.642;2024-02-23T22:02:40;4.40;1.00
7248;DHT22;3665;51.034;13.642;2024-02-23T22:07:28;4.30;1.00
7248;DHT22;3665;51.034;13.642;2024-02-23T22:12:17;4.40;1.00
7248;DHT22;3665;51.034;13.642;2024-02-23T22:17:01;4.30;1.00
7248;DHT22;3665;51.034;13.642;2024-02-23T22:21:45;4.30;1.00
7248;DHT22;3665;51.034;13.642;2024-02-23T22:27:05;4.30;1.00
7248;DHT22;3665;51.034;13.642;2024-02-23T22:32:04;4.40;1.00
7248;DHT22;3665;51.034;13.642;2024-02-23T22:37:29;4.40;1.00
7248;DHT22;3665;51.034;13.642;2024-02-23T22:42:43;4.30;1.00
7248;DHT22;3665;51.034;13.642;2024-02-23T22:47:51;4.30;1.00
7248;DHT22;3665;51.034;13.642;2024-02-23T22:52:48;4.50;1.00
7248;DHT22;3665;51.034;13.642;2024-02-23T22:57:38;4.40;1.00
7248;DHT22;3665;51.034;13.642;2024-02-23T23:02:35;4.40;1.00
7248;DHT22;3665;51.034;13.642;2024-02-23T23:07:57;4.30;1.00
7248;DHT22;3665;51.034;13.642;2024-02-23T23:13:46;4.30;1.00
7248;DHT22;3665;51.034;13.642;2024-02-23T23:18:52;4.30;1.00
7248;DHT22;3665;51.034;13.642;2024-02-23T23:23:55;4.30;1.00
7248;DHT22;3665;51.034;13.642;2024-02-23T23:28:58;4.20;1.00
7248;DHT22;3665;51.034;13.642;2024-02-23T23:34:05;4.30;1.00
7248;DHT22;3665;51.034;13.642;2024-02-23T23:39:11;4.20;1.00
7248;DHT22;3665;51.034;13.642;2024-02-23T23:44:09;4.20;1.00
7248;DHT22;3665;51.034;13.642;2024-02-23T23:49:48;4.20;1.00
7248;DHT22;3665;51.034;13.642;2024-02-23T23:54:53;4.20;1.00
